createdAt,value
2018-09-13T00:00:01.410Z,71.15
2018-09-13T00:02:29.066Z,71.04
2018-09-13T00:04:56.782Z,71.51
2018-09-13T00:07:24.438Z,72.60
2018-09-13T00:09:52.098Z,72.17
2018-09-13T00:12:19.791Z,72.75
2018-09-13T00:14:47.475Z,73.37
2018-09-13T00:17:15.140Z,73.50
2018-09-13T00:19:42.831Z,73.49
2018-09-13T00:22:10.486Z,73.51
2018-09-13T00:24:38.145Z,72.80
2018-09-13T00:27:05.914Z,73.30
2018-09-13T00:29:33.576Z,72.59
2018-09-13T00:32:01.232Z,72.63
2018-09-13T00:34:28.957Z,72.30
2018-09-13T00:36:56.718Z,72.65
2018-09-13T00:39:24.394Z,72.45
2018-09-13T00:41:52.101Z,72.30
2018-09-13T00:44:19.764Z,73.37
2018-09-13T00:46:47.439Z,73.73
2018-09-13T00:49:15.132Z,74.22
2018-09-13T00:51:42.789Z,74.14
2018-09-13T00:54:10.498Z,73.42
2018-09-13T00:56:38.203Z,73.60
2018-09-13T00:59:05.964Z,73.43
2018-09-13T01:01:33.586Z,73.07
2018-09-13T01:04:01.285Z,73.26
2018-09-13T01:06:29.007Z,73.38
2018-09-13T01:08:56.677Z,72.40
2018-09-13T01:11:24.383Z,72.30
2018-09-13T01:13:52.040Z,71.24
2018-09-13T01:16:19.723Z,70.40
2018-09-13T01:18:47.413Z,69.79
2018-09-13T01:21:15.082Z,68.61
2018-09-13T01:23:42.750Z,68.38
2018-09-13T01:26:10.482Z,67.93
2018-09-13T01:28:38.129Z,67.79
2018-09-13T01:31:05.817Z,67.69
2018-09-13T01:33:33.526Z,67.50
2018-09-13T01:36:01.184Z,67.52
2018-09-13T01:38:28.825Z,66.43
2018-09-13T01:40:56.551Z,66.43
2018-09-13T01:43:24.221Z,66.10
2018-09-13T01:45:51.874Z,66.66
2018-09-13T01:48:19.599Z,66.31
2018-09-13T01:50:47.280Z,67.57
2018-09-13T01:53:14.941Z,67.75
2018-09-13T01:55:42.621Z,67.97
2018-09-13T01:58:10.329Z,68.05
2018-09-13T02:00:38.002Z,68.11
2018-09-13T02:03:05.746Z,68.37
2018-09-13T02:05:33.410Z,69.27
2018-09-13T02:08:01.081Z,70.10
2018-09-13T02:10:28.790Z,69.36
2018-09-13T02:12:56.463Z,70.39
2018-09-13T02:15:24.112Z,70.50
2018-09-13T02:17:51.789Z,71.65
2018-09-13T02:20:19.478Z,72.62
2018-09-13T02:22:47.133Z,72.56
2018-09-13T02:25:14.836Z,72.99
2018-09-13T02:27:42.490Z,73.16
2018-09-13T02:30:10.166Z,73.60
2018-09-13T02:32:37.883Z,73.66
2018-09-13T02:35:05.669Z,73.52
2018-09-13T02:37:33.366Z,73.33
2018-09-13T02:40:01.126Z,74.17
2018-09-13T02:42:29.230Z,73.65
2018-09-13T02:44:56.901Z,74.15
2018-09-13T02:47:24.608Z,75.42
2018-09-13T02:49:52.291Z,75.88
2018-09-13T02:52:19.934Z,75.89
2018-09-13T02:54:47.621Z,75.94
2018-09-13T02:57:15.269Z,76.23
2018-09-13T02:59:42.922Z,75.99
2018-09-13T03:02:10.602Z,76.21
2018-09-13T03:04:38.269Z,76.21
2018-09-13T03:07:05.938Z,76.13
2018-09-13T03:09:33.618Z,76.38
2018-09-13T03:12:01.263Z,76.46
2018-09-13T03:14:28.943Z,76.46
2018-09-13T03:16:56.654Z,77.21
2018-09-13T03:19:24.324Z,76.49
2018-09-13T03:21:52.010Z,76.50
2018-09-13T03:24:19.693Z,76.44
2018-09-13T03:26:47.374Z,77.22
2018-09-13T03:29:15.140Z,77.35
2018-09-13T03:31:42.833Z,78.10
2018-09-13T03:34:10.494Z,78.48
2018-09-13T03:36:38.155Z,77.98
2018-09-13T03:39:08.350Z,77.73
2018-09-13T03:41:36.010Z,77.96
2018-09-13T03:44:03.711Z,77.38
2018-09-13T03:46:31.401Z,76.96
2018-09-13T03:48:59.104Z,76.66
2018-09-13T03:51:26.775Z,75.88
2018-09-13T03:53:54.464Z,74.61
2018-09-13T03:56:22.118Z,74.66
2018-09-13T03:58:49.913Z,74.25
2018-09-13T04:01:17.649Z,74.18
2018-09-13T04:03:45.493Z,74.11
2018-09-13T04:06:13.165Z,73.55
2018-09-13T04:08:40.969Z,73.79
2018-09-13T04:11:08.638Z,74.55
2018-09-13T04:13:36.386Z,73.77
2018-09-13T04:16:04.125Z,74.07
2018-09-13T04:18:31.819Z,73.14
2018-09-13T04:20:59.485Z,72.69
2018-09-13T04:23:27.227Z,71.82
2018-09-13T04:25:54.896Z,70.44
2018-09-13T04:28:22.574Z,70.10
2018-09-13T04:30:50.410Z,66.91
2018-09-13T04:33:18.057Z,65.21
2018-09-13T04:35:45.744Z,64.36
2018-09-13T04:38:13.429Z,64.95
2018-09-13T04:40:41.087Z,65.65
2018-09-13T04:43:08.741Z,64.95
2018-09-13T04:45:36.437Z,64.42
2018-09-13T04:48:04.109Z,64.71
2018-09-13T04:50:31.750Z,64.10
2018-09-13T04:52:59.451Z,65.50
2018-09-13T04:55:27.154Z,65.23
2018-09-13T04:57:54.822Z,65.48
2018-09-13T05:00:22.540Z,64.24
2018-09-13T05:02:50.215Z,62.48
2018-09-13T05:05:17.893Z,59.24
2018-09-13T05:07:45.595Z,52.40
2018-09-13T05:10:13.286Z,48.55
2018-09-13T05:12:40.959Z,44.51
2018-09-13T05:15:08.707Z,44.20
2018-09-13T05:17:36.372Z,46.80
2018-09-13T05:20:04.203Z,47.17
2018-09-13T05:22:31.949Z,49.53
2018-09-13T05:24:59.614Z,48.76
2018-09-13T05:27:27.265Z,47.76
2018-09-13T05:29:54.964Z,48.09
2018-09-13T05:32:22.630Z,46.83
2018-09-13T05:34:50.358Z,45.70
2018-09-13T05:37:18.065Z,47.08
2018-09-13T05:39:45.729Z,49.56
2018-09-13T05:42:13.377Z,47.72
2018-09-13T05:44:41.101Z,49.51
2018-09-13T05:47:08.778Z,52.55
2018-09-13T05:49:36.521Z,50.50
2018-09-13T05:52:04.231Z,48.06
2018-09-13T05:54:31.871Z,46.85
2018-09-13T05:56:59.559Z,45.73
2018-09-13T05:59:27.258Z,44.35
2018-09-13T06:01:54.918Z,43.71
2018-09-13T06:04:22.577Z,43.90
2018-09-13T06:06:50.282Z,41.40
2018-09-13T06:09:17.929Z,42.36
2018-09-13T06:11:45.604Z,42.54
2018-09-13T06:14:13.286Z,43.33
2018-09-13T06:16:41.078Z,43.83
2018-09-13T06:19:08.906Z,43.64
2018-09-13T06:21:36.601Z,44.89
2018-09-13T06:24:04.294Z,43.02
2018-09-13T06:26:31.997Z,39.86
2018-09-13T06:28:59.706Z,42.03
2018-09-13T06:31:27.366Z,43.43
2018-09-13T06:33:55.130Z,46.41
2018-09-13T06:36:22.853Z,47.60
2018-09-13T06:38:50.550Z,50.54
2018-09-13T06:41:18.354Z,48.46
2018-09-13T06:43:46.066Z,47.07
2018-09-13T06:46:13.750Z,46.76
2018-09-13T06:48:41.437Z,45.97
2018-09-13T06:51:09.175Z,45.16
2018-09-13T06:53:36.860Z,44.44
2018-09-13T06:56:04.513Z,46.98
2018-09-13T06:58:32.206Z,46.93
2018-09-13T07:00:59.885Z,46.05
2018-09-13T07:03:27.576Z,43.42
2018-09-13T07:05:55.670Z,43.05
2018-09-13T07:08:23.346Z,43.45
2018-09-13T07:10:51.114Z,43.50
2018-09-13T07:13:19.244Z,44.55
2018-09-13T07:15:46.950Z,46.97
2018-09-13T07:18:14.618Z,47.99
2018-09-13T07:20:42.306Z,48.85
2018-09-13T07:23:10.038Z,47.98
2018-09-13T07:25:37.695Z,47.85
2018-09-13T07:28:05.501Z,46.56
2018-09-13T07:30:33.305Z,45.00
2018-09-13T07:33:01.131Z,45.96
2018-09-13T07:35:28.976Z,46.45
2018-09-13T07:37:56.778Z,47.92
2018-09-13T07:40:24.579Z,45.87
2018-09-13T07:42:52.556Z,43.57
2018-09-13T07:45:20.255Z,43.08
2018-09-13T07:47:48.060Z,45.50
2018-09-13T07:50:15.876Z,47.05
2018-09-13T07:52:43.566Z,46.22
2018-09-13T07:55:11.274Z,48.18
2018-09-13T07:57:39.046Z,49.03
2018-09-13T08:00:07.198Z,49.01
2018-09-13T08:02:34.999Z,50.01
2018-09-13T08:05:02.879Z,50.25
2018-09-13T08:07:30.592Z,48.38
2018-09-13T08:09:58.288Z,47.27
2018-09-13T08:12:26.070Z,48.07
2018-09-13T08:14:53.817Z,50.13
2018-09-13T08:17:21.545Z,47.59
2018-09-13T08:19:49.322Z,45.97
2018-09-13T08:22:17.090Z,44.25
2018-09-13T08:24:44.797Z,46.04
2018-09-13T08:27:12.594Z,43.64
2018-09-13T08:29:40.270Z,44.66
2018-09-13T08:32:08.006Z,45.15
2018-09-13T08:34:35.829Z,44.30
2018-09-13T08:37:03.672Z,42.06
2018-09-13T08:39:31.362Z,41.61
2018-09-13T08:41:59.104Z,42.35
2018-09-13T08:44:26.845Z,44.10
2018-09-13T08:46:54.591Z,44.00
2018-09-13T08:49:22.310Z,43.79
2018-09-13T08:51:49.985Z,43.63
2018-09-13T08:54:17.631Z,42.80
2018-09-13T08:56:45.367Z,42.86
2018-09-13T08:59:13.106Z,43.48
2018-09-13T09:01:40.822Z,41.11
2018-09-13T09:04:08.565Z,40.49
2018-09-13T09:06:36.315Z,39.35
2018-09-13T09:09:07.353Z,39.06
2018-09-13T09:11:35.141Z,38.12
2018-09-13T09:14:02.954Z,35.72
2018-09-13T09:16:30.680Z,38.69
2018-09-13T09:18:58.377Z,37.19
2018-09-13T09:21:26.087Z,36.20
2018-09-13T09:23:53.841Z,36.60
2018-09-13T09:26:21.631Z,37.57
2018-09-13T09:28:49.543Z,39.11
2018-09-13T09:31:17.267Z,39.32
2018-09-13T09:33:45.046Z,40.52
2018-09-13T09:36:12.769Z,41.59
2018-09-13T09:38:40.519Z,41.15
2018-09-13T09:41:08.342Z,41.84
2018-09-13T09:43:36.022Z,42.74
2018-09-13T09:46:03.741Z,42.06
2018-09-13T09:48:31.524Z,41.30
2018-09-13T09:50:59.382Z,39.60
2018-09-13T09:53:27.105Z,37.69
2018-09-13T09:55:54.831Z,37.54
2018-09-13T09:58:22.569Z,36.90
2018-09-13T10:00:55.805Z,36.44
2018-09-13T10:03:44.283Z,36.86
2018-09-13T10:06:12.004Z,36.74
2018-09-13T10:08:39.697Z,36.26
2018-09-13T10:11:07.403Z,37.56
2018-09-13T10:13:35.175Z,37.19
2018-09-13T10:16:08.500Z,37.05
2018-09-13T10:18:41.872Z,37.98
2018-09-13T10:21:15.130Z,35.61
2018-09-13T10:23:48.253Z,35.94
2018-09-13T10:26:21.532Z,35.70
2018-09-13T10:28:54.725Z,36.63
2018-09-13T10:31:28.042Z,34.50
2018-09-13T10:34:01.298Z,32.82
2018-09-13T10:36:34.425Z,34.99
2018-09-13T10:39:07.688Z,37.30
2018-09-13T10:41:40.803Z,37.89
2018-09-13T10:44:14.007Z,35.42
2018-09-13T10:46:41.730Z,35.90
2018-09-13T10:49:14.837Z,34.58
2018-09-13T10:51:47.919Z,36.88
2018-09-13T10:54:23.131Z,37.12
2018-09-13T10:56:50.842Z,37.04
2018-09-13T10:59:18.704Z,36.26
2018-09-13T11:01:46.359Z,34.62
2018-09-13T11:04:14.135Z,34.13
2018-09-13T11:06:41.870Z,34.52
2018-09-13T11:09:13.545Z,35.81
2018-09-13T11:11:41.971Z,34.62
2018-09-13T11:14:15.187Z,33.65
2018-09-13T11:16:42.975Z,32.46
2018-09-13T11:19:10.660Z,30.09
2018-09-13T11:21:38.549Z,29.04
2018-09-13T11:24:06.513Z,28.41
2018-09-13T11:26:34.248Z,29.37
2018-09-13T11:29:01.981Z,30.95
2018-09-13T11:31:29.883Z,30.67
2018-09-13T11:33:57.682Z,30.43
2018-09-13T11:36:25.501Z,30.82
2018-09-13T11:38:53.173Z,31.33
2018-09-13T11:41:20.918Z,30.97
2018-09-13T11:43:48.681Z,29.51
2018-09-13T11:46:16.462Z,30.00
2018-09-13T11:48:44.153Z,29.29
2018-09-13T11:51:11.885Z,29.22
2018-09-13T11:53:39.617Z,30.00
2018-09-13T11:56:07.433Z,29.97
2018-09-13T11:58:35.340Z,31.30
2018-09-13T12:01:03.067Z,30.12
2018-09-13T12:03:30.782Z,31.36
2018-09-13T12:05:58.492Z,30.93
2018-09-13T12:08:26.277Z,30.30
2018-09-13T12:10:54.026Z,28.57
2018-09-13T12:13:21.775Z,28.75
2018-09-13T12:15:49.497Z,29.76
2018-09-13T12:18:17.299Z,29.03
2018-09-13T12:20:45.066Z,28.21
2018-09-13T12:23:12.791Z,28.26
2018-09-13T12:25:40.510Z,29.58
2018-09-13T12:28:08.319Z,29.90
2018-09-13T12:30:36.070Z,30.69
2018-09-13T12:33:03.862Z,31.13
2018-09-13T12:35:31.606Z,29.34
2018-09-13T12:37:59.342Z,31.74
2018-09-13T12:40:27.103Z,31.99
2018-09-13T12:42:54.790Z,31.83
2018-09-13T12:45:22.486Z,30.26
2018-09-13T12:47:50.337Z,29.41
2018-09-13T12:50:18.694Z,28.38
2018-09-13T12:52:46.487Z,27.47
2018-09-13T12:55:14.365Z,26.89
2018-09-13T12:57:42.296Z,26.64
2018-09-13T13:00:10.121Z,26.75
2018-09-13T13:02:37.878Z,25.94
2018-09-13T13:05:05.761Z,27.77
2018-09-13T13:07:33.903Z,29.31
2018-09-13T13:10:01.722Z,34.41
2018-09-13T13:12:29.574Z,37.20
2018-09-13T13:14:57.366Z,38.85
2018-09-13T13:17:25.189Z,39.99
2018-09-13T13:19:53.018Z,39.33
2018-09-13T13:22:20.790Z,38.77
2018-09-13T13:24:48.557Z,41.20
2018-09-13T13:27:16.370Z,44.11
2018-09-13T13:29:44.126Z,43.47
2018-09-13T13:32:11.898Z,43.79
2018-09-13T13:34:39.746Z,43.28
2018-09-13T13:37:07.626Z,43.23
2018-09-13T13:39:35.431Z,41.43
2018-09-13T13:42:03.291Z,40.39
2018-09-13T13:44:31.042Z,40.95
2018-09-13T13:46:58.910Z,39.36
2018-09-13T13:49:26.778Z,37.27
2018-09-13T13:51:54.554Z,36.84
2018-09-13T13:54:22.366Z,35.23
2018-09-13T13:56:50.171Z,35.58
2018-09-13T13:59:17.972Z,38.56
2018-09-13T14:01:45.694Z,38.07
2018-09-13T14:04:13.518Z,38.77
2018-09-13T14:06:41.258Z,39.02
2018-09-13T14:09:11.213Z,38.30
2018-09-13T14:11:39.101Z,37.16
2018-09-13T14:14:06.829Z,36.08
2018-09-13T14:16:34.614Z,37.40
2018-09-13T14:19:02.388Z,36.50
2018-09-13T14:21:30.130Z,36.53
2018-09-13T14:23:57.905Z,37.85
2018-09-13T14:26:25.837Z,36.19
2018-09-13T14:28:53.585Z,35.67
2018-09-13T14:31:21.365Z,35.38
2018-09-13T14:33:49.122Z,34.35
2018-09-13T14:36:17.013Z,33.25
2018-09-13T14:38:44.789Z,34.87
2018-09-13T14:41:12.625Z,35.06
2018-09-13T14:43:40.444Z,34.81
2018-09-13T14:46:08.263Z,35.82
2018-09-13T14:48:36.087Z,36.15
2018-09-13T14:51:03.882Z,36.69
2018-09-13T14:53:31.714Z,36.72
2018-09-13T14:55:59.797Z,36.44
2018-09-13T14:58:27.629Z,36.83
2018-09-13T15:00:55.469Z,36.11
2018-09-13T15:03:23.318Z,34.98
2018-09-13T15:05:51.077Z,36.77
2018-09-13T15:08:18.853Z,35.50
2018-09-13T15:10:46.742Z,35.41
2018-09-13T15:13:14.634Z,35.38
2018-09-13T15:15:42.481Z,36.71
2018-09-13T15:18:10.275Z,37.58
2018-09-13T15:20:38.065Z,37.80
2018-09-13T15:23:05.840Z,39.14
2018-09-13T15:25:33.650Z,40.90
2018-09-13T15:28:01.481Z,39.59
2018-09-13T15:30:29.230Z,40.20
2018-09-13T15:32:57.103Z,39.96
2018-09-13T15:35:24.931Z,40.20
2018-09-13T15:37:52.677Z,41.02
2018-09-13T15:40:20.591Z,40.04
2018-09-13T15:42:48.368Z,40.05
2018-09-13T15:45:16.117Z,39.39
2018-09-13T15:47:43.918Z,39.44
2018-09-13T15:50:11.797Z,40.10
2018-09-13T15:52:39.566Z,40.08
2018-09-13T15:55:07.427Z,40.59
2018-09-13T15:57:35.214Z,40.81
2018-09-13T16:00:03.078Z,40.47
2018-09-13T16:02:30.958Z,40.70
2018-09-13T16:04:58.770Z,40.68
2018-09-13T16:07:26.516Z,40.38
2018-09-13T16:09:54.326Z,40.70
2018-09-13T16:12:22.137Z,41.09
2018-09-13T16:14:49.874Z,41.45
2018-09-13T16:17:17.717Z,42.15
2018-09-13T16:19:45.678Z,43.56
2018-09-13T16:22:13.462Z,44.32
2018-09-13T16:24:41.299Z,46.31
2018-09-13T16:27:09.266Z,47.41
2018-09-13T16:29:37.023Z,47.97
2018-09-13T16:32:04.819Z,48.90
2018-09-13T16:34:32.890Z,50.05
2018-09-13T16:37:07.829Z,50.39
2018-09-13T16:39:41.079Z,50.71
2018-09-13T16:42:14.462Z,50.75
2018-09-13T16:44:48.020Z,50.65
2018-09-13T16:47:37.108Z,51.53
2018-09-13T16:50:04.986Z,51.54
2018-09-13T16:52:32.746Z,51.80
2018-09-13T16:55:00.519Z,51.93
2018-09-13T16:57:28.307Z,51.72
2018-09-13T16:59:56.064Z,53.18
2018-09-13T17:02:23.846Z,53.79
2018-09-13T17:04:51.657Z,54.38
2018-09-13T17:07:19.761Z,55.47
2018-09-13T17:09:47.862Z,55.22
2018-09-13T17:12:15.608Z,54.43
2018-09-13T17:14:43.405Z,54.61
2018-09-13T17:17:11.297Z,54.01
2018-09-13T17:19:39.146Z,53.79
2018-09-13T17:22:07.199Z,53.66
2018-09-13T17:24:35.014Z,53.82
2018-09-13T17:27:02.849Z,53.23
2018-09-13T17:29:30.648Z,54.22
2018-09-13T17:31:58.438Z,54.36
2018-09-13T17:34:26.200Z,53.95
2018-09-13T17:36:53.949Z,55.14
2018-09-13T17:39:22.019Z,54.67
2018-09-13T17:41:49.832Z,54.79
2018-09-13T17:44:17.590Z,55.11
2018-09-13T17:46:45.362Z,54.33
2018-09-13T17:49:13.126Z,54.19
2018-09-13T17:51:40.879Z,54.13
2018-09-13T17:54:08.674Z,54.48
2018-09-13T17:56:36.391Z,54.72
2018-09-13T17:59:04.079Z,54.33
2018-09-13T18:01:31.797Z,53.71
2018-09-13T18:03:59.506Z,54.77
2018-09-13T18:06:27.191Z,53.82
2018-09-13T18:08:54.921Z,53.83
2018-09-13T18:11:22.625Z,54.21
2018-09-13T18:13:50.755Z,53.86
2018-09-13T18:16:18.630Z,53.08
2018-09-13T18:18:46.292Z,53.71
2018-09-13T18:21:13.972Z,54.50
2018-09-13T18:23:41.811Z,53.41
2018-09-13T18:26:09.513Z,54.77
2018-09-13T18:28:37.223Z,54.60
2018-09-13T18:31:04.997Z,55.12
2018-09-13T18:33:32.785Z,55.35
2018-09-13T18:36:00.573Z,55.40
2018-09-13T18:38:28.360Z,55.13
2018-09-13T18:40:56.987Z,54.76
2018-09-13T18:43:24.711Z,53.93
2018-09-13T18:45:52.528Z,54.20
2018-09-13T18:48:20.233Z,55.35
2018-09-13T18:50:47.920Z,56.01
2018-09-13T18:53:15.633Z,55.94
2018-09-13T18:55:43.438Z,55.35
2018-09-13T18:58:11.143Z,55.46
2018-09-13T19:00:38.942Z,55.08
2018-09-13T19:03:06.639Z,55.02
2018-09-13T19:05:34.401Z,54.70
2018-09-13T19:08:02.134Z,54.68
2018-09-13T19:10:29.875Z,54.89
2018-09-13T19:12:57.571Z,55.22
2018-09-13T19:15:25.282Z,55.24
2018-09-13T19:17:53.049Z,55.17
2018-09-13T19:20:20.826Z,55.55
2018-09-13T19:22:48.678Z,54.94
2018-09-13T19:25:16.590Z,55.78
2018-09-13T19:27:44.442Z,57.29
2018-09-13T19:30:12.494Z,57.77
2018-09-13T19:32:40.434Z,57.20
2018-09-13T19:35:08.298Z,57.07
2018-09-13T19:37:36.271Z,57.01
2018-09-13T19:40:04.373Z,57.98
2018-09-13T19:42:32.398Z,57.97
2018-09-13T19:45:00.200Z,58.21
2018-09-13T19:47:27.952Z,59.49
2018-09-13T19:49:55.806Z,59.59
2018-09-13T19:52:23.581Z,59.33
2018-09-13T19:54:51.461Z,59.40
2018-09-13T19:57:19.320Z,59.30
2018-09-13T19:59:47.195Z,59.53
2018-09-13T20:02:14.947Z,58.98
2018-09-13T20:04:43.151Z,59.61
2018-09-13T20:07:10.886Z,59.01
2018-09-13T20:09:38.580Z,58.32
2018-09-13T20:12:06.310Z,58.44
2018-09-13T20:14:34.014Z,58.41
2018-09-13T20:17:01.699Z,57.88
2018-09-13T20:19:29.397Z,58.00
2018-09-13T20:21:57.113Z,57.65
2018-09-13T20:24:24.803Z,58.13
2018-09-13T20:26:52.500Z,57.29
2018-09-13T20:29:20.296Z,58.21
2018-09-13T20:31:47.975Z,58.14
2018-09-13T20:34:15.643Z,59.78
2018-09-13T20:36:43.671Z,58.90
2018-09-13T20:39:11.845Z,58.39
2018-09-13T20:41:39.531Z,58.04
2018-09-13T20:44:07.824Z,58.10
2018-09-13T20:46:35.503Z,57.79
2018-09-13T20:49:03.205Z,57.65
2018-09-13T20:51:30.913Z,57.86
2018-09-13T20:53:58.600Z,57.61
2018-09-13T20:56:26.283Z,57.26
2018-09-13T20:58:53.990Z,56.41
2018-09-13T21:01:21.661Z,56.52
2018-09-13T21:03:49.353Z,55.54
2018-09-13T21:06:17.238Z,55.95
2018-09-13T21:08:45.029Z,56.45
2018-09-13T21:11:12.705Z,57.85
2018-09-13T21:13:40.435Z,58.18
2018-09-13T21:16:08.173Z,57.58
2018-09-13T21:18:35.852Z,57.42
2018-09-13T21:21:03.596Z,57.63
2018-09-13T21:23:31.303Z,58.20
2018-09-13T21:25:59.007Z,58.66
2018-09-13T21:28:26.734Z,58.67
2018-09-13T21:30:54.439Z,57.72
2018-09-13T21:33:22.131Z,58.20
2018-09-13T21:35:49.839Z,59.44
2018-09-13T21:38:17.535Z,59.02
2018-09-13T21:40:45.278Z,59.07
2018-09-13T21:43:13.043Z,58.44
2018-09-13T21:45:40.827Z,58.50
2018-09-13T21:48:08.546Z,58.27
2018-09-13T21:50:36.264Z,58.14
2018-09-13T21:53:03.994Z,59.20
2018-09-13T21:55:31.692Z,59.53
2018-09-13T21:57:59.461Z,59.88
2018-09-13T22:00:27.226Z,59.07
2018-09-13T22:02:54.959Z,59.43
2018-09-13T22:05:22.654Z,60.40
2018-09-13T22:07:50.306Z,62.53
2018-09-13T22:10:18.003Z,62.25
2018-09-13T22:12:45.736Z,61.82
2018-09-13T22:15:13.429Z,62.00
2018-09-13T22:17:41.131Z,61.18
2018-09-13T22:20:08.862Z,61.89
2018-09-13T22:22:36.551Z,61.76
2018-09-13T22:25:04.311Z,61.82
2018-09-13T22:27:32.015Z,62.46
2018-09-13T22:29:59.678Z,63.04
2018-09-13T22:32:27.364Z,62.03
2018-09-13T22:34:55.071Z,64.27
2018-09-13T22:37:22.748Z,64.35
2018-09-13T22:39:50.414Z,63.49
2018-09-13T22:42:18.117Z,63.74
2018-09-13T22:44:45.789Z,63.80
2018-09-13T22:47:13.467Z,64.02
2018-09-13T22:49:41.648Z,64.12
2018-09-13T22:52:09.579Z,64.13
2018-09-13T22:54:37.434Z,64.91
2018-09-13T22:57:06.415Z,64.84
2018-09-13T22:59:34.098Z,63.54
2018-09-13T23:02:01.807Z,63.72
2018-09-13T23:04:29.513Z,63.98
2018-09-13T23:06:57.329Z,64.06
2018-09-13T23:09:25.005Z,64.74
2018-09-13T23:11:52.708Z,64.02
2018-09-13T23:14:20.388Z,62.61
2018-09-13T23:16:49.581Z,63.48
2018-09-13T23:19:15.894Z,63.86
2018-09-13T23:21:43.592Z,63.47
2018-09-13T23:24:11.263Z,65.61
2018-09-13T23:26:38.990Z,64.91
2018-09-13T23:29:06.687Z,65.07
2018-09-13T23:31:34.374Z,65.21
2018-09-13T23:34:02.049Z,64.34
2018-09-13T23:36:29.758Z,63.75
2018-09-13T23:38:57.491Z,62.89
2018-09-13T23:41:25.149Z,61.93
2018-09-13T23:43:52.799Z,61.58
2018-09-13T23:46:20.554Z,61.40
2018-09-13T23:48:48.239Z,61.51
2018-09-13T23:51:15.903Z,61.72
2018-09-13T23:53:43.590Z,62.15
2018-09-13T23:56:11.307Z,61.22
2018-09-13T23:58:39.042Z,60.99
